createdAt,value
2018-12-14T00:04:30.990Z,97340.69
2018-12-14T00:14:50.365Z,97329.83
2018-12-14T00:25:10.444Z,97325.14
2018-12-14T00:35:30.496Z,97320.79
2018-12-14T00:45:50.785Z,97322.31
2018-12-14T00:56:09.594Z,97320.24
2018-12-14T01:06:28.366Z,97320.75
2018-12-14T01:16:47.164Z,97323.54
2018-12-14T01:27:06.824Z,97334.53
2018-12-14T01:37:25.304Z,97339.48
2018-12-14T01:47:44.498Z,97337.23
2018-12-14T01:58:03.115Z,97336.80
2018-12-14T02:08:22.292Z,97335.25
2018-12-14T02:18:41.666Z,97338.56
2018-12-14T02:29:02.728Z,97330.39
2018-12-14T02:39:21.438Z,97330.94
2018-12-14T02:49:40.176Z,97323.41
2018-12-14T03:00:00.108Z,97323.44
2018-12-14T03:10:19.426Z,97314.33
2018-12-14T03:20:38.230Z,97305.63
2018-12-14T03:30:56.960Z,97299.12
2018-12-14T03:41:15.740Z,97303.36
2018-12-14T03:51:34.713Z,97302.63
2018-12-14T04:01:53.606Z,97306.00
2018-12-14T04:12:13.264Z,97275.44
2018-12-14T04:22:32.454Z,97304.47
2018-12-14T04:32:51.144Z,97312.10
2018-12-14T04:43:10.575Z,97319.39
2018-12-14T04:53:29.054Z,97338.69
2018-12-14T05:03:47.363Z,97342.41
2018-12-14T05:14:06.443Z,97353.00
2018-12-14T05:24:25.763Z,97344.82
2018-12-14T05:34:45.312Z,97357.41
2018-12-14T05:45:04.348Z,97359.89
2018-12-14T05:55:23.541Z,97368.33
2018-12-14T06:05:42.527Z,97373.55
2018-12-14T06:16:01.615Z,97374.19
2018-12-14T06:26:21.673Z,97378.28
2018-12-14T06:36:41.863Z,97391.50
2018-12-14T06:47:01.946Z,97388.26
2018-12-14T06:57:21.183Z,97393.84
2018-12-14T07:07:40.394Z,97408.26
2018-12-14T07:18:00.946Z,97407.72
2018-12-14T07:28:20.206Z,97417.19
2018-12-14T07:38:39.026Z,97435.91
2018-12-14T07:48:57.954Z,97441.06
2018-12-14T07:59:16.849Z,97440.92
2018-12-14T08:09:36.076Z,97448.22
2018-12-14T08:19:54.516Z,97457.39
2018-12-14T08:30:13.696Z,97464.82
2018-12-14T08:40:32.076Z,97478.80
2018-12-14T08:50:50.728Z,97491.13
2018-12-14T09:01:09.718Z,97489.42
2018-12-14T09:11:28.417Z,97504.61
2018-12-14T09:21:46.965Z,97506.30
2018-12-14T09:32:06.579Z,97499.22
2018-12-14T09:43:18.732Z,97498.30
2018-12-14T09:53:37.019Z,97498.52
2018-12-14T10:04:36.140Z,97503.20
2018-12-14T10:14:57.789Z,97497.53
2018-12-14T10:25:33.301Z,97498.17
2018-12-14T10:35:53.114Z,97500.36
2018-12-14T10:46:09.507Z,97493.30
2018-12-14T10:56:28.451Z,97486.34
2018-12-14T11:06:51.914Z,97485.80
2018-12-14T11:17:10.487Z,97473.54
2018-12-14T11:27:33.025Z,97474.94
2018-12-14T11:37:59.270Z,97472.29
2018-12-14T11:48:17.902Z,97472.17
2018-12-14T11:58:37.137Z,97481.05
2018-12-14T12:08:55.830Z,97475.34
2018-12-14T12:19:15.830Z,97477.42
2018-12-14T12:29:35.870Z,97468.36
2018-12-14T12:39:54.367Z,97472.66
2018-12-14T12:50:18.857Z,97482.03
2018-12-14T13:00:49.745Z,97469.87
2018-12-14T13:11:15.526Z,97466.47
2018-12-14T13:22:07.272Z,97461.63
2018-12-14T13:32:40.512Z,97471.07
2018-12-14T13:56:10.719Z,97481.72
2018-12-14T14:05:28.519Z,97491.98
2018-12-14T14:16:25.615Z,97497.66
2018-12-14T14:26:45.107Z,97516.16
2018-12-14T14:37:04.628Z,97527.48
2018-12-14T14:47:23.735Z,97535.90
2018-12-14T14:57:42.633Z,97550.23
2018-12-14T15:08:02.097Z,97540.58
2018-12-14T15:18:21.383Z,97556.58
2018-12-14T15:28:47.467Z,97559.68
2018-12-14T15:39:02.167Z,97565.84
2018-12-14T15:49:27.760Z,97582.30
2018-12-14T15:59:49.412Z,97583.34
2018-12-14T16:10:09.649Z,97591.98
2018-12-14T16:20:29.311Z,97594.70
2018-12-14T16:30:48.830Z,97601.41
2018-12-14T16:41:13.141Z,97603.78
2018-12-14T16:51:48.616Z,97611.61
2018-12-14T17:01:55.552Z,97609.80
2018-12-14T17:12:20.235Z,97617.35
2018-12-14T17:22:52.443Z,97622.81
2018-12-14T17:33:05.276Z,97618.03
2018-12-14T17:43:29.790Z,97633.41
2018-12-14T17:53:51.487Z,97633.70
2018-12-14T18:04:11.348Z,97636.80
2018-12-14T18:14:37.853Z,97646.53
2018-12-14T18:25:06.293Z,97647.74
2018-12-14T18:35:21.343Z,97652.67
2018-12-14T18:57:13.605Z,97671.87
2018-12-14T19:07:31.814Z,97674.19
2018-12-14T19:17:50.739Z,97685.77
2018-12-14T19:28:10.480Z,97685.47
2018-12-14T19:38:29.460Z,97688.70
2018-12-14T19:48:49.741Z,97695.12
2018-12-14T19:59:09.886Z,97696.84
2018-12-14T20:09:28.947Z,97701.84
2018-12-14T20:19:48.134Z,97703.33
2018-12-14T20:30:08.183Z,97706.61
2018-12-14T20:40:27.458Z,97717.62
2018-12-14T20:50:47.420Z,97715.67
2018-12-14T21:01:06.003Z,97718.32
2018-12-14T21:11:25.477Z,97719.39
2018-12-14T21:21:45.725Z,97710.55
2018-12-14T21:32:05.128Z,97661.72
2018-12-14T21:42:28.497Z,97710.53
2018-12-14T21:52:48.334Z,97724.86
2018-12-14T22:03:07.249Z,97724.77
2018-12-14T22:13:26.116Z,97730.14
2018-12-14T22:23:45.396Z,97735.30
2018-12-14T22:34:04.405Z,97739.18
2018-12-14T22:44:23.276Z,97705.23
2018-12-14T22:54:42.011Z,97737.20
2018-12-14T23:05:02.588Z,97730.03
2018-12-14T23:15:22.618Z,97720.83
2018-12-14T23:25:42.572Z,97713.04
2018-12-14T23:36:01.852Z,97708.74
2018-12-14T23:46:20.839Z,97712.28
2018-12-14T23:56:40.301Z,97715.00
